Time;durP1;ratioP1;P1;durP2;ratioP2;P2;SDS_P1;SDS_P2;PMS_P1;PMS_P2;Temp;Humidity;BMP_temperature;BMP_pressure;BME280_temperature;BME280_humidity;BME280_pressure;Samples;Min_cycle;Max_cycle;Signal;HPM_P1;HPM_P2
2022/01/18 00:01:24;;;;;;;12.87;5.93;;;;;;;5.90;72.94;99363.66;5032802;28;20425;-83
2022/01/18 00:03:50;;;;;;;11.90;4.73;;;;;;;5.90;72.91;99366.19;5033468;28;20919;-83
2022/01/18 00:06:15;;;;;;;7.10;3.83;;;;;;;5.38;72.52;99275.03;5033583;28;20167;-84
2022/01/18 00:08:41;;;;;;;8.17;4.63;;;;;;;3.24;72.30;98920.69;5015569;28;20165;-85
2022/01/18 00:11:07;;;;;;;7.43;3.80;;;;;;;5.08;74.25;99258.09;5033481;28;20166;-84
2022/01/18 00:13:47;;;;;;;7.83;3.00;;;;;;;5.77;74.13;99388.75;5033348;28;20269;-83
2022/01/18 00:16:28;;;;;;;7.33;3.60;;;;;;;5.73;74.04;99382.69;5033110;28;20415;-82
2022/01/18 00:18:58;;;;;;;5.33;3.43;;;;;;;5.75;74.16;99375.22;5015017;28;20853;-82
2022/01/18 00:23:56;;;;;;;5.80;3.00;;;;;;;3.94;74.86;99087.06;5032967;28;20892;-83
2022/01/18 00:26:22;;;;;;;5.90;3.10;;;;;;;4.41;75.37;99181.91;5033218;28;20401;-83
2022/01/18 00:28:53;;;;;;;5.20;3.03;;;;;;;5.16;74.95;99327.22;5033134;28;20473;-83
2022/01/18 00:36:40;;;;;;;4.77;3.00;;;;;;;5.41;72.01;99314.56;5033005;28;20856;-83
2022/01/18 00:39:09;;;;;;;4.97;2.67;;;;;;;5.33;71.26;99286.44;5032681;28;20463;-83
2022/01/18 00:41:35;;;;;;;4.10;2.67;;;;;;;6.15;70.95;99424.69;5033543;28;20401;-84
2022/01/18 00:44:01;;;;;;;6.20;2.50;;;;;;;4.91;71.16;99190.09;5015809;28;20473;-83
2022/01/18 00:46:27;;;;;;;3.63;2.70;;;;;;;4.20;71.48;99080.34;5032847;28;20161;-83
2022/01/18 00:48:55;;;;;;;4.43;2.33;;;;;;;6.16;72.66;99421.38;5033107;28;20401;-83
2022/01/18 00:51:20;;;;;;;4.00;2.73;;;;;;;6.19;72.62;99420.69;5033881;28;20159;-83
2022/01/18 00:53:46;;;;;;;3.13;1.97;;;;;;;5.85;72.67;99375.09;5033922;28;20409;-83
2022/01/18 00:58:40;;;;;;;2.97;2.03;;;;;;;6.18;73.21;99419.81;5037100;28;20607;-84
2022/01/18 01:01:07;;;;;;;3.23;2.00;;;;;;;3.31;73.64;98942.81;5032666;28;20829;-84
2022/01/18 01:03:32;;;;;;;3.63;2.30;;;;;;;4.43;74.54;99140.25;5032505;28;20919;-84
2022/01/18 01:05:58;;;;;;;4.80;2.27;;;;;;;6.04;75.56;99437.38;5014342;28;20419;-83
2022/01/18 01:08:23;;;;;;;2.37;1.80;;;;;;;4.35;75.64;99166.47;5032009;28;20164;-83
2022/01/18 01:10:49;;;;;;;2.20;1.80;;;;;;;6.00;76.36;99437.94;5032144;28;20190;-83
2022/01/18 01:13:15;;;;;;;3.57;2.30;;;;;;;6.02;76.16;99441.41;5032305;28;20165;-84
2022/01/18 01:35:10;;;;;;;3.40;2.37;;;;;;;5.84;75.77;99438.59;4971476;28;21213;-84
2022/01/18 01:45:59;;;;;;;3.00;2.40;;;;;;;5.25;74.02;99351.97;4951713;29;20432;-83
2022/01/18 01:48:26;;;;;;;4.00;2.30;;;;;;;6.12;75.86;99507.44;4951879;29;20397;-83
2022/01/18 01:51:02;;;;;;;4.30;2.10;;;;;;;5.88;83.64;99526.84;4951245;29;20417;-83
2022/01/18 01:53:28;;;;;;;2.70;1.90;;;;;;;5.35;89.51;99503.28;4953393;29;21019;-83
2022/01/18 01:55:54;;;;;;;4.87;3.47;;;;;;;5.18;92.69;99531.41;4953720;29;20432;-82
2022/01/18 01:58:24;;;;;;;5.93;3.10;;;;;;;5.11;92.10;99538.44;4952452;29;20885;-83
2022/01/18 02:00:53;;;;;;;4.60;2.80;;;;;;;5.06;92.10;99518.03;4951911;29;20220;-82
2022/01/18 02:03:19;;;;;;;5.83;3.40;;;;;;;5.04;92.35;99542.16;4952343;29;20462;-84
2022/01/18 02:05:44;;;;;;;4.20;3.07;;;;;;;4.27;93.90;99424.06;4952329;29;20567;-84
2022/01/18 02:08:12;;;;;;;5.80;3.30;;;;;;;4.30;93.26;99428.41;4951966;29;20491;-84
2022/01/18 02:10:39;;;;;;;5.33;3.57;;;;;;;4.51;94.25;99485.88;4953684;28;20257;-84
2022/01/18 02:13:06;;;;;;;4.80;3.30;;;;;;;4.05;94.21;99409.19;4994255;28;20502;-83
2022/01/18 02:15:32;;;;;;;5.07;3.00;;;;;;;4.78;93.73;99562.09;4994083;28;20465;-83
2022/01/18 02:23:28;;;;;;;7.57;3.93;;;;;;;4.59;92.35;99549.03;5026865;28;20441;-83
2022/01/18 02:25:55;;;;;;;3.13;2.20;;;;;;;4.72;85.53;99576.72;5015731;28;20401;-83
2022/01/18 02:28:22;;;;;;;4.10;2.47;;;;;;;4.75;84.87;99575.28;5015463;28;20409;-83
2022/01/18 02:30:49;;;;;;;4.03;2.50;;;;;;;2.90;84.78;99290.06;5015172;28;20458;-83
2022/01/18 02:33:15;;;;;;;4.43;2.60;;;;;;;4.68;82.35;99599.84;5017989;28;20893;-83
2022/01/18 02:35:41;;;;;;;3.03;2.40;;;;;;;4.18;81.81;99523.63;5016621;28;20441;-84
2022/01/18 02:38:06;;;;;;;3.33;2.47;;;;;;;3.41;78.57;99402.94;5015071;28;20941;-83
2022/01/18 02:40:33;;;;;;;4.13;2.50;;;;;;;4.62;78.30;99609.44;5015172;28;20753;-84
2022/01/18 02:43:46;;;;;;;3.53;2.60;;;;;;;4.63;80.90;99642.16;5015373;28;20548;-83
2022/01/18 02:45:47;;;;;;;3.17;2.40;;;;;;;4.00;82.61;99538.25;5015048;28;20405;-83
2022/01/18 02:48:13;;;;;;;4.03;2.87;;;;;;;3.88;84.94;99544.00;5013845;28;20421;-83
2022/01/18 02:50:39;;;;;;;4.23;2.70;;;;;;;3.11;84.90;99423.25;5014739;28;20171;-83
2022/01/18 02:53:04;;;;;;;5.40;3.40;;;;;;;3.82;85.83;99559.44;5014874;28;20471;-84
2022/01/18 02:55:30;;;;;;;4.87;3.10;;;;;;;4.13;86.15;99610.97;5014025;28;20190;-83
2022/01/18 02:58:02;;;;;;;4.60;3.13;;;;;;;2.73;86.79;99386.34;5014612;28;20194;-82
2022/01/18 03:00:41;;;;;;;9.47;5.67;;;;;;;0.88;87.67;99103.66;5014897;28;20619;-83
2022/01/18 03:03:17;;;;;;;8.20;4.87;;;;;;;3.65;87.30;99632.47;5013661;28;20429;-83
2022/01/18 03:05:44;;;;;;;6.70;4.03;;;;;;;3.71;84.48;99670.44;5015317;28;20409;-83
2022/01/18 03:08:11;;;;;;;6.33;3.60;;;;;;;3.86;82.54;99736.69;5014958;28;20898;-83
2022/01/18 03:10:38;;;;;;;6.67;3.53;;;;;;;2.69;81.50;99540.94;5014648;28;20416;-83
2022/01/18 03:13:05;;;;;;;4.30;3.07;;;;;;;3.55;82.73;99733.50;5013748;28;20414;-83
2022/01/18 03:15:31;;;;;;;4.43;2.73;;;;;;;3.48;80.16;99737.94;5029458;28;20474;-83
2022/01/18 03:17:57;;;;;;;6.60;3.50;;;;;;;2.99;76.88;99651.63;5034540;28;20523;-83
2022/01/18 03:20:23;;;;;;;2.87;1.70;;;;;;;3.29;71.55;99764.81;5034473;28;20882;-83
2022/01/18 03:22:50;;;;;;;9.27;4.33;;;;;;;3.04;71.43;99711.13;5033867;28;20192;-83
2022/01/18 03:25:28;;;;;;;12.93;5.87;;;;;;;2.10;70.07;99588.75;5034810;28;20404;-84
2022/01/18 03:28:05;;;;;;;4.80;1.70;;;;;;;1.76;69.22;99567.72;5034021;28;20434;-84
2022/01/18 03:30:46;;;;;;;3.33;1.90;;;;;;;2.60;68.35;99726.03;5034401;28;20401;-83
2022/01/18 03:33:14;;;;;;;9.70;5.40;;;;;;;1.72;67.44;99595.69;5034687;28;20480;-83
2022/01/18 03:35:40;;;;;;;13.43;6.33;;;;;;;2.32;59.26;99687.09;5016776;28;20408;-83
2022/01/18 03:38:06;;;;;;;6.00;2.97;;;;;;;2.10;52.85;99611.22;5034650;28;20452;-83
2022/01/18 03:40:32;;;;;;;4.90;2.60;;;;;;;3.03;50.53;99739.38;5016351;28;20416;-83
2022/01/18 03:42:59;;;;;;;3.37;2.30;;;;;;;3.09;48.35;99732.38;5033701;28;21743;-84
2022/01/18 03:45:29;;;;;;;5.63;2.57;;;;;;;2.92;46.43;99671.03;5033843;28;20173;-84
2022/01/18 03:47:58;;;;;;;4.33;2.20;;;;;;;3.76;46.47;99821.03;5035101;28;20475;-84
2022/01/18 03:50:24;;;;;;;4.77;2.10;;;;;;;3.13;46.48;99721.88;5016448;28;20412;-84
2022/01/18 03:52:50;;;;;;;5.10;3.23;;;;;;;3.69;45.40;99842.19;5034297;28;20918;-83
2022/01/18 03:55:21;;;;;;;6.20;3.73;;;;;;;0.45;45.17;99269.66;5033805;28;20405;-83
2022/01/18 03:57:48;;;;;;;12.70;5.20;;;;;;;2.37;45.53;99611.78;5033893;28;20451;-83
2022/01/18 04:00:20;;;;;;;5.17;2.47;;;;;;;1.58;45.26;99486.44;5033758;28;20459;-84
2022/01/18 04:02:47;;;;;;;4.53;2.53;;;;;;;1.70;44.51;99504.88;5016375;28;20912;-84
2022/01/18 04:05:13;;;;;;;6.37;3.43;;;;;;;3.73;44.23;99851.72;5033968;28;20901;-83
2022/01/18 04:07:40;;;;;;;4.70;2.80;;;;;;;3.21;44.47;99804.25;5034206;28;20397;-83
2022/01/18 04:10:07;;;;;;;6.03;2.30;;;;;;;1.42;43.90;99491.81;5033928;28;20401;-84
2022/01/18 04:12:34;;;;;;;8.53;3.20;;;;;;;2.04;46.25;99603.25;5033407;28;20458;-84
2022/01/18 04:15:00;;;;;;;6.50;4.10;;;;;;;0.69;46.68;99384.47;5033413;28;20495;-83
2022/01/18 04:30:43;;;;;;;8.67;3.77;;;;;;;1.55;47.69;99631.72;4971578;28;20451;-83
2022/01/18 04:33:09;;;;;;;5.23;3.10;;;;;;;3.05;48.48;99907.97;4972996;28;20407;-83
2022/01/18 04:35:34;;;;;;;10.23;3.53;;;;;;;2.69;48.75;99869.19;4972837;28;20433;-84
2022/01/18 04:38:00;;;;;;;8.90;3.87;;;;;;;0.49;48.77;99510.69;4973817;28;20195;-84
2022/01/18 04:40:29;;;;;;;11.53;4.73;;;;;;;1.96;50.02;99798.97;4972824;28;20240;-84
2022/01/18 04:50:50;;;;;;;5.17;3.00;;;;;;;2.26;51.17;99908.88;4973519;28;20426;-84
2022/01/18 04:53:15;;;;;;;7.27;4.27;;;;;;;2.26;50.91;99891.41;4972790;28;20412;-84
2022/01/18 04:55:40;;;;;;;7.47;3.80;;;;;;;1.37;51.59;99757.44;4956730;28;20829;-84
2022/01/18 04:58:06;;;;;;;8.77;4.37;;;;;;;2.54;50.31;99962.91;4974343;28;20199;-83
2022/01/18 05:00:31;;;;;;;5.77;3.23;;;;;;;0.11;50.20;99557.97;4988997;28;20193;-84
2022/01/18 05:02:57;;;;;;;10.90;4.60;;;;;;;2.52;50.24;99974.41;5033481;28;20604;-84
2022/01/18 05:05:36;;;;;;;8.97;4.30;;;;;;;1.75;49.88;99846.34;5031993;28;20201;-84
2022/01/18 05:08:04;;;;;;;13.57;5.60;;;;;;;1.86;49.59;99867.22;5014873;28;20158;-84
2022/01/18 05:10:30;;;;;;;7.10;4.00;;;;;;;2.52;47.66;99981.03;5031823;28;20475;-84
2022/01/18 05:12:58;;;;;;;15.10;6.30;;;;;;;2.73;47.62;100008.69;5032999;28;20911;-83
2022/01/18 05:18:12;;;;;;;18.63;7.00;;;;;;;0.69;47.24;99668.44;5032393;28;20476;-84
2022/01/18 05:23:04;;;;;;;24.00;10.27;;;;;;;1.48;47.54;99814.09;5032927;28;20457;-84
2022/01/18 05:25:31;;;;;;;51.77;20.87;;;;;;;-0.65;48.02;99467.63;5014736;28;20248;-84
2022/01/18 05:27:59;;;;;;;18.10;8.30;;;;;;;0.62;49.05;99705.97;5033154;28;20397;-84
2022/01/18 05:30:25;;;;;;;14.77;6.13;;;;;;;0.57;50.06;99713.06;5032244;28;20397;-84
2022/01/18 05:32:51;;;;;;;36.37;14.47;;;;;;;1.30;49.15;99861.47;5032566;28;20412;-84
2022/01/18 05:35:16;;;;;;;9.00;4.53;;;;;;;0.52;48.87;99735.06;5032725;28;20415;-84
2022/01/18 05:37:42;;;;;;;15.57;8.13;;;;;;;2.37;49.18;100053.06;5023363;28;20966;-84
2022/01/18 05:40:08;;;;;;;23.13;11.50;;;;;;;2.02;49.11;99991.72;5011174;28;20217;-84
2022/01/18 05:42:33;;;;;;;35.23;13.73;;;;;;;2.31;49.97;100073.38;5031257;28;20271;-82
2022/01/18 05:44:59;;;;;;;19.93;8.47;;;;;;;1.68;48.49;99958.84;5031070;28;20429;-84
2022/01/18 05:47:24;;;;;;;16.50;8.37;;;;;;;2.19;48.04;100042.38;5035408;28;20201;-83
2022/01/18 05:49:50;;;;;;;9.57;4.13;;;;;;;2.38;46.06;100018.22;5035006;28;20186;-83
2022/01/18 05:52:15;;;;;;;5.30;2.80;;;;;;;2.38;45.54;100030.72;5035444;28;20178;-84
2022/01/18 05:54:41;;;;;;;4.57;2.37;;;;;;;2.20;44.70;99978.28;5035191;28;20224;-83
2022/01/18 05:57:07;;;;;;;4.03;2.47;;;;;;;2.80;44.94;100080.94;5023382;28;20698;-83
2022/01/18 05:59:38;;;;;;;5.77;2.40;;;;;;;1.81;45.07;99917.50;5015189;28;20261;-84
2022/01/18 06:02:15;;;;;;;5.43;1.90;;;;;;;2.55;45.11;100058.75;5014453;28;20178;-84
2022/01/18 06:07:26;;;;;;;7.50;3.77;;;;;;;2.66;46.52;100136.41;5015123;28;20436;-85
2022/01/18 06:09:53;;;;;;;18.67;8.13;;;;;;;1.97;47.41;100021.28;5015018;28;20937;-84
2022/01/18 06:12:22;;;;;;;12.73;6.43;;;;;;;0.47;47.40;99766.16;5014393;28;20182;-84
2022/01/18 06:14:48;;;;;;;11.50;5.13;;;;;;;1.65;48.04;99991.03;5014670;28;20472;-84
2022/01/18 06:17:13;;;;;;;7.87;3.33;;;;;;;0.94;47.28;99861.63;4997275;28;20477;-84
2022/01/18 06:19:39;;;;;;;9.00;3.73;;;;;;;2.22;47.36;100079.22;5014519;28;20217;-84
2022/01/18 06:22:04;;;;;;;8.47;3.77;;;;;;;2.21;47.79;100062.47;5014734;28;20185;-84
2022/01/18 06:24:29;;;;;;;6.53;3.13;;;;;;;2.39;48.84;100089.03;5013654;28;20626;-83
2022/01/18 06:26:55;;;;;;;6.27;3.23;;;;;;;0.33;49.17;99731.69;5014831;28;20220;-84
2022/01/18 06:29:21;;;;;;;7.47;3.10;;;;;;;0.96;47.89;99820.31;5015041;28;20183;-84
2022/01/18 06:31:47;;;;;;;7.73;4.00;;;;;;;1.67;48.69;99957.13;5016040;28;20183;-83
2022/01/18 06:34:14;;;;;;;8.83;4.50;;;;;;;1.43;48.77;99906.72;5015224;28;20445;-83
2022/01/18 06:36:43;;;;;;;12.60;5.33;;;;;;;1.67;49.45;99929.66;4996660;28;20441;-83
2022/01/18 06:39:09;;;;;;;14.53;5.37;;;;;;;0.68;49.72;99757.22;5002892;28;20496;-83
2022/01/18 06:41:35;;;;;;;10.97;4.80;;;;;;;0.77;50.15;99765.47;5014621;28;20426;-83
2022/01/18 06:44:00;;;;;;;5.00;2.83;;;;;;;1.14;50.65;99836.84;4997494;28;20432;-84
2022/01/18 06:46:25;;;;;;;6.47;2.73;;;;;;;2.03;52.29;100001.84;4997182;28;20190;-84
2022/01/18 06:48:51;;;;;;;6.90;3.47;;;;;;;0.68;51.69;99774.66;5013926;28;20187;-84
2022/01/18 06:51:17;;;;;;;7.93;3.93;;;;;;;2.15;52.33;100007.00;5031589;28;20178;-83
2022/01/18 06:53:48;;;;;;;9.13;5.13;;;;;;;2.18;52.25;100007.25;5034596;28;20436;-83
2022/01/18 06:56:15;;;;;;;5.03;2.77;;;;;;;1.45;51.88;99891.13;5034184;28;20260;-83
2022/01/18 06:58:41;;;;;;;4.47;3.27;;;;;;;2.76;51.82;100123.94;5031874;28;21058;-82
2022/01/18 07:01:06;;;;;;;3.93;2.50;;;;;;;2.78;51.90;100159.06;5015511;28;20437;-84
2022/01/18 07:03:32;;;;;;;5.03;2.53;;;;;;;1.26;51.63;99845.41;5015432;28;20182;-83
2022/01/18 07:05:57;;;;;;;4.47;2.27;;;;;;;3.20;51.68;100192.72;5018765;28;20335;-84
2022/01/18 07:08:22;;;;;;;4.73;2.73;;;;;;;2.85;51.42;100134.72;5017491;28;20205;-84
2022/01/18 07:10:48;;;;;;;3.87;2.67;;;;;;;2.11;51.38;99960.06;5015423;28;20194;-84
2022/01/18 07:13:14;;;;;;;4.07;2.33;;;;;;;2.02;51.43;99957.66;5033588;28;20174;-84
2022/01/18 07:15:40;;;;;;;5.03;2.40;;;;;;;1.99;51.13;99914.06;5032604;28;20267;-82
2022/01/18 07:18:07;;;;;;;3.97;2.60;;;;;;;3.52;51.25;100165.38;5033606;28;20504;-83
2022/01/18 07:20:33;;;;;;;5.83;3.10;;;;;;;3.47;50.27;100107.44;5033300;28;20964;-84
2022/01/18 07:22:59;;;;;;;6.23;3.60;;;;;;;2.71;50.26;99947.72;5033547;28;20480;-84
2022/01/18 07:25:26;;;;;;;23.80;9.40;;;;;;;3.75;50.05;100167.28;5035505;28;20852;-84
2022/01/18 07:27:51;;;;;;;9.53;5.00;;;;;;;3.83;50.16;100192.22;5035742;28;20185;-83
2022/01/18 07:30:17;;;;;;;5.53;2.67;;;;;;;3.74;50.39;100163.03;5016445;28;20443;-83
2022/01/18 07:32:43;;;;;;;5.03;2.93;;;;;;;1.94;49.77;99860.38;5011678;28;20183;-84
2022/01/18 07:35:11;;;;;;;7.27;2.40;;;;;;;3.16;49.19;100044.75;5014121;28;20200;-84
2022/01/18 07:37:37;;;;;;;5.07;2.90;;;;;;;3.69;49.00;100135.13;5013534;28;20266;-83
2022/01/18 07:40:03;;;;;;;3.80;2.30;;;;;;;4.28;48.56;100221.78;4984471;28;20465;-84
2022/01/18 07:42:29;;;;;;;4.10;2.63;;;;;;;3.25;48.89;100013.84;5012438;28;20665;-83
2022/01/18 07:44:54;;;;;;;6.33;2.70;;;;;;;3.98;48.54;100167.56;5013386;28;20520;-84
2022/01/18 07:47:20;;;;;;;5.43;3.30;;;;;;;3.25;47.93;100030.50;5013505;28;20200;-84
2022/01/18 07:49:47;;;;;;;8.40;3.90;;;;;;;4.08;47.78;100150.00;5013021;28;20170;-85
2022/01/18 07:52:12;;;;;;;4.93;2.50;;;;;;;4.10;47.34;100156.88;5013369;28;20265;-83
2022/01/18 07:54:38;;;;;;;2.93;2.03;;;;;;;3.41;46.78;100071.03;5013057;28;20465;-84
2022/01/18 07:57:04;;;;;;;5.13;3.50;;;;;;;4.56;47.08;100244.16;5012492;28;20205;-84
2022/01/18 07:59:29;;;;;;;5.93;3.80;;;;;;;4.56;46.58;100216.56;5013232;28;20187;-83
2022/01/18 08:01:55;;;;;;;4.73;2.80;;;;;;;4.44;46.11;100145.44;5012857;28;20590;-84
2022/01/18 08:04:21;;;;;;;6.10;3.20;;;;;;;4.91;45.93;100188.41;5012864;28;20266;-84
2022/01/18 08:06:46;;;;;;;4.87;2.90;;;;;;;3.87;45.62;100051.50;5012615;28;20643;-84
2022/01/18 08:09:11;;;;;;;7.50;3.60;;;;;;;4.10;46.85;100136.84;5012410;28;20175;-83
2022/01/18 08:11:37;;;;;;;9.13;4.90;;;;;;;4.39;46.12;100158.34;5012826;28;20182;-84
2022/01/18 08:14:03;;;;;;;6.83;2.57;;;;;;;4.00;44.78;100101.81;5012670;28;20226;-83
2022/01/18 08:19:00;;;;;;;9.23;3.80;;;;;;;4.96;43.98;100270.78;5012746;28;20449;-84
2022/01/18 08:21:26;;;;;;;14.50;6.37;;;;;;;5.21;43.63;100293.69;5013069;28;20441;-83
2022/01/18 08:23:52;;;;;;;5.93;2.77;;;;;;;3.90;44.79;100101.78;5012205;28;20493;-83
2022/01/18 08:26:18;;;;;;;8.23;3.70;;;;;;;4.69;44.79;100229.38;5011353;28;20510;-85
2022/01/18 08:28:44;;;;;;;6.50;3.43;;;;;;;3.94;44.36;100067.84;5012872;28;20192;-84
2022/01/18 08:31:09;;;;;;;4.97;2.70;;;;;;;4.91;42.35;100171.72;5012844;28;20186;-84
2022/01/18 08:33:35;;;;;;;5.07;2.47;;;;;;;3.96;43.83;100089.75;5012827;28;20491;-84
2022/01/18 08:36:03;;;;;;;7.27;3.83;;;;;;;4.31;43.75;100151.84;5013032;28;20236;-84
2022/01/18 08:38:30;;;;;;;13.87;6.03;;;;;;;4.40;44.15;100089.91;5012923;28;20207;-84
2022/01/18 08:40:56;;;;;;;5.07;2.40;;;;;;;4.25;42.75;100068.66;5001528;28;21011;-84
2022/01/18 08:43:22;;;;;;;7.80;3.60;;;;;;;5.48;42.23;100313.41;5012976;28;20441;-85
2022/01/18 08:45:48;;;;;;;6.37;3.33;;;;;;;5.20;43.04;100306.97;5012801;28;20441;-84
2022/01/18 08:48:13;;;;;;;11.70;4.63;;;;;;;3.30;42.51;99931.66;5012265;28;20575;-84
2022/01/18 08:50:39;;;;;;;9.00;3.23;;;;;;;4.68;42.45;100122.28;5012547;28;20182;-84
2022/01/18 08:53:05;;;;;;;8.93;3.97;;;;;;;4.01;41.79;100010.84;5012126;28;20646;-85
2022/01/18 08:55:33;;;;;;;8.77;4.07;;;;;;;5.81;42.66;100298.44;5012034;28;20439;-84
2022/01/18 08:57:58;;;;;;;13.30;6.17;;;;;;;3.50;41.36;99879.06;5012058;28;20683;-86
2022/01/18 09:00:24;;;;;;;6.20;3.10;;;;;;;6.10;41.48;100328.31;5012488;28;20440;-84
2022/01/18 09:02:49;;;;;;;5.20;2.70;;;;;;;4.38;42.20;100064.72;5012534;28;20574;-84
2022/01/18 09:05:15;;;;;;;7.20;3.60;;;;;;;5.54;42.27;100237.66;4995864;28;20249;-84
2022/01/18 09:07:41;;;;;;;5.17;2.70;;;;;;;5.38;42.08;100198.81;5012613;28;20569;-84
2022/01/18 09:10:09;;;;;;;5.10;2.67;;;;;;;6.28;40.56;100313.75;5011218;28;20221;-84
2022/01/18 09:12:35;;;;;;;9.73;4.17;;;;;;;3.07;41.15;99816.41;4994751;28;20271;-83
2022/01/18 09:15:01;;;;;;;33.77;17.80;;;;;;;6.12;40.01;100196.09;5012586;28;20469;-83
2022/01/18 09:17:28;;;;;;;12.60;5.93;;;;;;;6.23;40.18;100169.22;5011614;28;20213;-83
2022/01/18 09:19:54;;;;;;;5.83;2.97;;;;;;;6.35;40.10;100238.88;5012062;28;21000;-84
2022/01/18 09:22:20;;;;;;;11.93;4.40;;;;;;;4.90;40.75;100026.09;5014392;28;20987;-84
2022/01/18 09:24:45;;;;;;;12.23;5.30;;;;;;;6.02;40.67;100210.34;5014558;28;20438;-83
2022/01/18 09:27:11;;;;;;;10.63;4.53;;;;;;;6.32;40.68;100295.59;5013605;28;20183;-84
2022/01/18 09:29:39;;;;;;;9.17;4.93;;;;;;;5.98;39.77;100302.25;5016020;28;20269;-83
2022/01/18 09:32:05;;;;;;;5.97;3.43;;;;;;;4.57;40.23;100027.78;4995202;28;20187;-83
2022/01/18 09:34:30;;;;;;;5.97;3.00;;;;;;;6.00;39.34;100240.41;5012490;28;20441;-84
2022/01/18 09:36:56;;;;;;;16.93;8.13;;;;;;;4.46;39.00;99854.75;5011641;28;20210;-84
2022/01/18 09:39:21;;;;;;;14.67;7.70;;;;;;;5.54;38.95;100049.34;5000850;28;20561;-85
2022/01/18 09:41:51;;;;;;;9.03;5.10;;;;;;;6.64;39.47;100242.63;5010324;28;20261;-85
2022/01/18 09:44:17;;;;;;;7.60;4.20;;;;;;;7.08;39.01;100302.94;4997586;28;21052;-85
2022/01/18 09:46:43;;;;;;;10.17;5.00;;;;;;;7.57;39.05;100299.72;5014378;28;20433;-87
2022/01/18 09:49:09;;;;;;;6.57;3.43;;;;;;;6.76;39.14;100279.59;5020790;28;20417;-86
2022/01/18 09:51:35;;;;;;;5.37;3.00;;;;;;;5.76;38.24;100068.59;5015899;28;20425;-85
2022/01/18 09:54:00;;;;;;;7.60;3.10;;;;;;;6.38;38.72;100176.22;5015225;28;20208;-84
2022/01/18 09:56:26;;;;;;;4.77;2.23;;;;;;;4.08;38.68;99806.81;5014286;28;20182;-85
2022/01/18 09:58:51;;;;;;;8.13;3.93;;;;;;;5.85;38.13;100014.00;5013627;28;20240;-84
2022/01/18 10:01:17;;;;;;;5.00;2.90;;;;;;;7.23;38.18;100251.91;5014429;28;20663;-85
2022/01/18 10:03:43;;;;;;;7.53;4.50;;;;;;;7.82;37.69;100299.78;5015500;28;20179;-84
2022/01/18 10:06:10;;;;;;;11.97;6.60;;;;;;;6.60;37.27;100089.72;5015358;28;20432;-86
2022/01/18 10:08:38;;;;;;;26.00;11.93;;;;;;;7.15;37.54;100087.72;5014427;28;20187;-85
2022/01/18 10:11:15;;;;;;;23.23;12.17;;;;;;;8.09;36.93;100280.59;5015077;28;20445;-85
2022/01/18 10:13:44;;;;;;;12.33;5.93;;;;;;;7.95;38.28;100276.25;5015751;28;20187;-85
2022/01/18 10:16:15;;;;;;;8.27;4.93;;;;;;;7.49;37.30;100262.16;5016314;28;20246;-85
2022/01/18 10:18:48;;;;;;;4.27;2.20;;;;;;;6.96;39.12;100270.97;5018089;28;21169;-84
2022/01/18 10:21:25;;;;;;;4.73;2.47;;;;;;;6.65;38.90;100244.41;5015795;28;20441;-86
2022/01/18 10:23:51;;;;;;;7.90;3.50;;;;;;;7.02;39.12;100251.28;5014312;28;20425;-83
2022/01/18 10:26:21;;;;;;;4.83;2.43;;;;;;;6.96;38.63;100246.69;5013294;28;20799;-84
2022/01/18 10:28:57;;;;;;;6.07;3.20;;;;;;;7.27;39.12;100261.44;5028386;28;20880;-84
2022/01/18 10:31:36;;;;;;;7.10;2.60;;;;;;;7.55;37.88;100239.91;4989972;28;20508;-84
2022/01/18 10:37:15;;;;;;;7.23;3.57;;;;;;;7.35;38.18;100170.53;5020060;28;20495;-85
2022/01/18 10:39:49;;;;;;;20.63;8.93;;;;;;;7.90;38.35;100222.13;5038427;28;20413;-84
2022/01/18 10:42:20;;;;;;;15.97;8.47;;;;;;;7.81;37.72;100203.88;5030346;28;20228;-84
2022/01/18 10:44:59;;;;;;;6.10;3.70;;;;;;;7.65;37.81;100217.97;5038061;28;20188;-84
2022/01/18 10:47:26;;;;;;;14.07;8.63;;;;;;;8.01;37.95;100221.22;5011402;28;20269;-84
2022/01/18 10:49:52;;;;;;;5.80;3.37;;;;;;;7.47;37.52;100188.97;5000896;28;20187;-84
2022/01/18 10:52:22;;;;;;;10.80;5.37;;;;;;;5.96;37.02;99920.94;5017309;28;20540;-84
2022/01/18 10:54:54;;;;;;;15.37;6.00;;;;;;;6.76;36.54;100029.63;5003102;28;20658;-83
2022/01/18 10:57:22;;;;;;;26.57;11.63;;;;;;;8.02;37.35;100205.31;5016916;28;20475;-83
2022/01/18 10:59:48;;;;;;;7.63;4.07;;;;;;;7.77;36.60;100217.06;5016179;28;20217;-83
2022/01/18 11:02:19;;;;;;;9.70;4.67;;;;;;;7.47;37.32;100167.97;5008314;28;20201;-84
2022/01/18 11:04:56;;;;;;;18.30;9.47;;;;;;;7.56;37.45;100204.72;5004389;28;20666;-83
2022/01/18 11:07:24;;;;;;;11.60;5.73;;;;;;;7.29;37.62;100186.84;5017875;28;20474;-84
2022/01/18 11:09:50;;;;;;;10.63;4.67;;;;;;;7.01;38.24;100171.47;5015060;28;20437;-83
2022/01/18 11:12:19;;;;;;;28.37;11.67;;;;;;;7.15;37.87;100133.03;4997367;28;20445;-83
2022/01/18 11:14:46;;;;;;;6.40;3.67;;;;;;;6.95;38.06;100114.03;5013890;28;20698;-83
2022/01/18 11:17:21;;;;;;;15.77;8.30;;;;;;;4.78;37.88;99677.44;5020866;28;20452;-84
2022/01/18 11:19:48;;;;;;;17.77;10.03;;;;;;;6.20;37.63;99868.22;5031176;28;20511;-84
2022/01/18 11:22:14;;;;;;;18.93;9.97;;;;;;;6.66;37.17;99939.19;5016329;28;20183;-83
2022/01/18 11:24:42;;;;;;;19.13;10.40;;;;;;;7.81;37.75;100197.19;5018654;28;20241;-83
2022/01/18 11:27:13;;;;;;;8.87;5.07;;;;;;;7.25;38.64;100116.91;5016535;28;20189;-85
2022/01/18 11:29:40;;;;;;;8.10;3.47;;;;;;;8.00;38.28;100209.34;5020476;28;20186;-82
2022/01/18 11:32:06;;;;;;;9.20;4.67;;;;;;;6.29;37.44;99999.56;5020946;28;20635;-84
2022/01/18 11:34:49;;;;;;;10.03;6.00;;;;;;;7.45;37.71;100205.66;5015170;28;20229;-83
2022/01/18 11:37:43;;;;;;;13.10;7.03;;;;;;;7.22;37.66;100130.19;5017555;28;20293;-84
2022/01/18 11:40:12;;;;;;;12.43;6.90;;;;;;;7.00;38.11;100096.75;5004044;28;20257;-84
2022/01/18 11:42:42;;;;;;;12.77;7.40;;;;;;;7.89;38.18;100222.91;5014427;28;20654;-83
2022/01/18 11:45:26;;;;;;;26.03;13.60;;;;;;;8.01;37.42;100228.78;5014987;28;20441;-84
2022/01/18 11:48:24;;;;;;;24.67;12.23;;;;;;;7.72;37.88;100214.19;5014411;28;20186;-84
2022/01/18 11:51:01;;;;;;;9.47;4.33;;;;;;;7.36;38.57;100179.81;4966396;29;20199;-84
2022/01/18 11:53:43;;;;;;;9.77;5.87;;;;;;;6.81;39.29;100146.59;4977986;28;20185;-85
2022/01/18 11:56:42;;;;;;;11.03;6.83;;;;;;;7.04;39.17;100144.00;4937172;28;20201;-83
2022/01/18 11:59:19;;;;;;;9.47;5.10;;;;;;;7.64;37.99;100218.72;4924014;29;20237;-84
2022/01/18 12:02:05;;;;;;;23.83;13.20;;;;;;;8.11;39.21;100221.91;4921999;29;20204;-85
2022/01/18 12:07:30;;;;;;;15.47;7.80;;;;;;;7.39;38.27;100164.06;4956304;29;20704;-85
2022/01/18 12:09:55;;;;;;;23.93;12.27;;;;;;;6.35;38.04;99977.34;4956591;29;20244;-84
2022/01/18 12:12:39;;;;;;;22.73;12.83;;;;;;;8.07;37.79;100214.94;4960147;29;20202;-85
2022/01/18 12:15:26;;;;;;;23.93;12.63;;;;;;;7.88;37.28;100198.47;4961421;29;20259;-85
2022/01/18 12:18:01;;;;;;;19.27;12.13;;;;;;;8.08;38.53;100228.38;4961747;29;20208;-84
2022/01/18 12:20:37;;;;;;;14.37;8.60;;;;;;;7.79;38.48;100228.97;4960013;29;20200;-84
2022/01/18 12:23:06;;;;;;;18.47;9.90;;;;;;;6.65;38.25;100005.41;4961051;29;20188;-83
2022/01/18 12:26:00;;;;;;;30.93;16.43;;;;;;;7.12;39.16;100073.28;4960113;29;20196;-83
2022/01/18 12:34:38;;;;;;;20.87;10.83;;;;;;;7.83;38.58;100214.94;5016753;28;20191;-85
2022/01/18 12:39:54;;;;;;;12.10;7.37;;;;;;;7.99;38.33;100227.81;5018790;28;20186;-84
2022/01/18 12:45:20;;;;;;;22.73;12.00;;;;;;;8.24;37.98;100231.19;5036716;28;20208;-85
2022/01/18 12:47:51;;;;;;;7.43;4.57;;;;;;;7.80;38.00;100224.81;5018762;28;20265;-84
2022/01/18 12:50:28;;;;;;;5.27;2.83;;;;;;;6.62;38.58;100103.28;5000180;28;20197;-84
2022/01/18 12:53:05;;;;;;;10.87;5.70;;;;;;;6.28;39.50;100077.41;5017788;28;20179;-83
2022/01/18 12:55:46;;;;;;;6.63;4.00;;;;;;;6.74;39.99;100217.34;5017219;28;20265;-84
2022/01/18 12:58:34;;;;;;;15.93;8.83;;;;;;;7.09;39.98;100220.72;5017654;28;20539;-84
2022/01/18 13:01:12;;;;;;;18.23;10.03;;;;;;;6.15;39.47;100040.47;5016180;28;20432;-83
2022/01/18 13:03:40;;;;;;;16.27;9.73;;;;;;;7.00;38.92;100172.28;5017614;28;20869;-84
2022/01/18 13:06:09;;;;;;;21.40;11.80;;;;;;;7.48;38.98;100215.94;5017922;28;20183;-84
2022/01/18 13:08:52;;;;;;;17.13;10.13;;;;;;;7.83;38.96;100214.94;4998225;28;20182;-84
2022/01/18 13:11:29;;;;;;;19.50;10.57;;;;;;;7.67;38.83;100213.00;5016805;28;20175;-85
2022/01/18 13:27:02;;;;;;;25.27;12.23;;;;;;;7.49;38.79;100172.34;5018381;28;20218;-82